sensor_id;sensor_type;location;lat;lon;timestamp;P1;durP1;ratioP1;P2;durP2;ratioP2
14994;SDS011;7593;49.006;8.372;2023-06-22T00:01:12;8.23;;;7.30;;
14994;SDS011;7593;49.006;8.372;2023-06-22T00:03:38;7.22;;;6.53;;
14994;SDS011;7593;49.006;8.372;2023-06-22T00:06:05;6.90;;;6.30;;
14994;SDS011;7593;49.006;8.372;2023-06-22T00:08:32;7.07;;;6.38;;
14994;SDS011;7593;49.006;8.372;2023-06-22T00:11:00;6.93;;;6.38;;
14994;SDS011;7593;49.006;8.372;2023-06-22T00:13:27;7.38;;;6.68;;
14994;SDS011;7593;49.006;8.372;2023-06-22T00:15:53;7.75;;;7.00;;
14994;SDS011;7593;49.006;8.372;2023-06-22T00:18:20;6.18;;;5.68;;
14994;SDS011;7593;49.006;8.372;2023-06-22T00:20:47;6.95;;;5.85;;
14994;SDS011;7593;49.006;8.372;2023-06-22T00:23:14;6.57;;;5.75;;
14994;SDS011;7593;49.006;8.372;2023-06-22T00:25:42;6.57;;;5.97;;
14994;SDS011;7593;49.006;8.372;2023-06-22T00:28:10;7.15;;;5.55;;
14994;SDS011;7593;49.006;8.372;2023-06-22T00:30:37;6.55;;;5.47;;
14994;SDS011;7593;49.006;8.372;2023-06-22T00:33:04;5.72;;;5.22;;
14994;SDS011;7593;49.006;8.372;2023-06-22T00:35:33;17.00;;;9.23;;
14994;SDS011;7593;49.006;8.372;2023-06-22T00:38:00;17.73;;;9.00;;
14994;SDS011;7593;49.006;8.372;2023-06-22T00:40:28;11.43;;;10.40;;
14994;SDS011;7593;49.006;8.372;2023-06-22T00:42:56;11.65;;;9.48;;
14994;SDS011;7593;49.006;8.372;2023-06-22T00:45:25;11.02;;;8.30;;
14994;SDS011;7593;49.006;8.372;2023-06-22T00:47:53;11.25;;;8.90;;
14994;SDS011;7593;49.006;8.372;2023-06-22T00:50:21;11.27;;;9.07;;
14994;SDS011;7593;49.006;8.372;2023-06-22T00:52:51;9.55;;;8.60;;
14994;SDS011;7593;49.006;8.372;2023-06-22T00:55:21;9.75;;;7.95;;
14994;SDS011;7593;49.006;8.372;2023-06-22T00:57:48;10.90;;;8.43;;
14994;SDS011;7593;49.006;8.372;2023-06-22T01:00:16;9.57;;;8.68;;
14994;SDS011;7593;49.006;8.372;2023-06-22T01:02:46;9.50;;;8.48;;
14994;SDS011;7593;49.006;8.372;2023-06-22T01:05:17;9.95;;;8.30;;
14994;SDS011;7593;49.006;8.372;2023-06-22T01:07:46;10.20;;;9.02;;
14994;SDS011;7593;49.006;8.372;2023-06-22T01:10:23;11.60;;;8.63;;
14994;SDS011;7593;49.006;8.372;2023-06-22T01:12:55;8.95;;;8.15;;
14994;SDS011;7593;49.006;8.372;2023-06-22T01:15:28;10.23;;;8.85;;
14994;SDS011;7593;49.006;8.372;2023-06-22T01:17:59;10.30;;;9.23;;
14994;SDS011;7593;49.006;8.372;2023-06-22T01:20:26;10.13;;;9.05;;
14994;SDS011;7593;49.006;8.372;2023-06-22T01:23:01;10.70;;;9.60;;
14994;SDS011;7593;49.006;8.372;2023-06-22T01:25:44;10.01;;;8.94;;
14994;SDS011;7593;49.006;8.372;2023-06-22T01:28:23;10.27;;;9.23;;
14994;SDS011;7593;49.006;8.372;2023-06-22T01:31:00;10.77;;;9.60;;
14994;SDS011;7593;49.006;8.372;2023-06-22T01:33:30;10.38;;;9.48;;
14994;SDS011;7593;49.006;8.372;2023-06-22T01:36:01;9.60;;;8.63;;
14994;SDS011;7593;49.006;8.372;2023-06-22T01:38:28;10.48;;;9.40;;
14994;SDS011;7593;49.006;8.372;2023-06-22T01:40:56;10.27;;;9.15;;
14994;SDS011;7593;49.006;8.372;2023-06-22T01:43:23;12.32;;;9.05;;
14994;SDS011;7593;49.006;8.372;2023-06-22T01:45:53;12.60;;;9.57;;
14994;SDS011;7593;49.006;8.372;2023-06-22T01:48:20;10.13;;;8.98;;
14994;SDS011;7593;49.006;8.372;2023-06-22T01:50:48;9.77;;;8.55;;
14994;SDS011;7593;49.006;8.372;2023-06-22T01:53:15;9.90;;;8.88;;
14994;SDS011;7593;49.006;8.372;2023-06-22T01:55:42;10.60;;;9.00;;
14994;SDS011;7593;49.006;8.372;2023-06-22T01:58:09;10.23;;;9.23;;
14994;SDS011;7593;49.006;8.372;2023-06-22T02:00:36;10.13;;;9.02;;
14994;SDS011;7593;49.006;8.372;2023-06-22T02:03:08;10.50;;;8.57;;
14994;SDS011;7593;49.006;8.372;2023-06-22T02:05:43;9.60;;;8.70;;
14994;SDS011;7593;49.006;8.372;2023-06-22T02:08:15;9.52;;;8.63;;
14994;SDS011;7593;49.006;8.372;2023-06-22T02:10:46;10.18;;;8.77;;
14994;SDS011;7593;49.006;8.372;2023-06-22T02:13:14;12.30;;;9.15;;
14994;SDS011;7593;49.006;8.372;2023-06-22T02:15:43;9.43;;;8.35;;
14994;SDS011;7593;49.006;8.372;2023-06-22T02:18:11;9.43;;;8.43;;
14994;SDS011;7593;49.006;8.372;2023-06-22T02:20:38;10.45;;;8.63;;
14994;SDS011;7593;49.006;8.372;2023-06-22T02:23:06;9.82;;;8.82;;
14994;SDS011;7593;49.006;8.372;2023-06-22T02:25:33;9.63;;;8.52;;
14994;SDS011;7593;49.006;8.372;2023-06-22T02:28:00;9.60;;;8.68;;
14994;SDS011;7593;49.006;8.372;2023-06-22T02:30:27;9.52;;;8.63;;
14994;SDS011;7593;49.006;8.372;2023-06-22T02:32:54;10.60;;;8.80;;
14994;SDS011;7593;49.006;8.372;2023-06-22T02:35:26;11.05;;;9.13;;
14994;SDS011;7593;49.006;8.372;2023-06-22T02:37:56;9.50;;;8.60;;
14994;SDS011;7593;49.006;8.372;2023-06-22T02:40:23;9.77;;;8.77;;
14994;SDS011;7593;49.006;8.372;2023-06-22T02:42:49;13.07;;;8.55;;
14994;SDS011;7593;49.006;8.372;2023-06-22T02:45:16;9.88;;;8.93;;
14994;SDS011;7593;49.006;8.372;2023-06-22T02:47:44;10.32;;;8.80;;
14994;SDS011;7593;49.006;8.372;2023-06-22T02:50:12;9.68;;;8.70;;
14994;SDS011;7593;49.006;8.372;2023-06-22T02:52:40;9.35;;;8.50;;
14994;SDS011;7593;49.006;8.372;2023-06-22T02:55:07;9.48;;;8.38;;
14994;SDS011;7593;49.006;8.372;2023-06-22T02:57:34;9.70;;;8.60;;
14994;SDS011;7593;49.006;8.372;2023-06-22T03:00:02;9.23;;;8.27;;
14994;SDS011;7593;49.006;8.372;2023-06-22T03:02:41;11.93;;;8.73;;
14994;SDS011;7593;49.006;8.372;2023-06-22T03:05:09;10.93;;;8.15;;
14994;SDS011;7593;49.006;8.372;2023-06-22T03:07:38;9.43;;;8.50;;
14994;SDS011;7593;49.006;8.372;2023-06-22T03:10:07;9.77;;;8.65;;
14994;SDS011;7593;49.006;8.372;2023-06-22T03:12:35;8.73;;;7.90;;
14994;SDS011;7593;49.006;8.372;2023-06-22T03:15:03;10.15;;;8.43;;
14994;SDS011;7593;49.006;8.372;2023-06-22T03:17:31;9.57;;;8.50;;
14994;SDS011;7593;49.006;8.372;2023-06-22T03:19:57;10.98;;;8.20;;
14994;SDS011;7593;49.006;8.372;2023-06-22T03:22:24;10.52;;;9.32;;
14994;SDS011;7593;49.006;8.372;2023-06-22T03:24:52;10.20;;;9.20;;
14994;SDS011;7593;49.006;8.372;2023-06-22T03:27:19;8.65;;;7.95;;
14994;SDS011;7593;49.006;8.372;2023-06-22T03:29:46;9.70;;;8.60;;
14994;SDS011;7593;49.006;8.372;2023-06-22T03:32:13;9.20;;;8.30;;
14994;SDS011;7593;49.006;8.372;2023-06-22T03:34:39;9.35;;;8.40;;
14994;SDS011;7593;49.006;8.372;2023-06-22T03:37:11;9.23;;;8.32;;
14994;SDS011;7593;49.006;8.372;2023-06-22T03:39:38;10.73;;;9.35;;
14994;SDS011;7593;49.006;8.372;2023-06-22T03:42:07;10.13;;;9.13;;
14994;SDS011;7593;49.006;8.372;2023-06-22T03:44:34;10.73;;;8.95;;
14994;SDS011;7593;49.006;8.372;2023-06-22T03:47:01;10.13;;;9.13;;
14994;SDS011;7593;49.006;8.372;2023-06-22T03:49:28;11.07;;;8.77;;
14994;SDS011;7593;49.006;8.372;2023-06-22T03:51:55;10.30;;;9.23;;
14994;SDS011;7593;49.006;8.372;2023-06-22T03:54:21;10.07;;;7.85;;
14994;SDS011;7593;49.006;8.372;2023-06-22T03:56:48;9.75;;;8.75;;
14994;SDS011;7593;49.006;8.372;2023-06-22T03:59:16;9.80;;;8.95;;
14994;SDS011;7593;49.006;8.372;2023-06-22T04:01:43;10.00;;;8.80;;
14994;SDS011;7593;49.006;8.372;2023-06-22T04:04:09;10.10;;;9.10;;
14994;SDS011;7593;49.006;8.372;2023-06-22T04:06:36;12.55;;;8.95;;
14994;SDS011;7593;49.006;8.372;2023-06-22T04:09:03;11.13;;;9.40;;
14994;SDS011;7593;49.006;8.372;2023-06-22T04:11:29;12.18;;;8.88;;
14994;SDS011;7593;49.006;8.372;2023-06-22T04:13:56;11.82;;;9.85;;
14994;SDS011;7593;49.006;8.372;2023-06-22T04:16:24;10.70;;;8.95;;
14994;SDS011;7593;49.006;8.372;2023-06-22T04:18:51;10.07;;;8.65;;
14994;SDS011;7593;49.006;8.372;2023-06-22T04:21:18;13.75;;;8.88;;
14994;SDS011;7593;49.006;8.372;2023-06-22T04:23:45;9.25;;;8.35;;
14994;SDS011;7593;49.006;8.372;2023-06-22T04:26:12;12.05;;;9.02;;
14994;SDS011;7593;49.006;8.372;2023-06-22T04:28:40;13.43;;;8.48;;
14994;SDS011;7593;49.006;8.372;2023-06-22T04:31:06;11.00;;;9.15;;
14994;SDS011;7593;49.006;8.372;2023-06-22T04:33:34;9.77;;;8.38;;
14994;SDS011;7593;49.006;8.372;2023-06-22T04:36:02;9.80;;;8.80;;
14994;SDS011;7593;49.006;8.372;2023-06-22T04:38:30;12.00;;;8.60;;
14994;SDS011;7593;49.006;8.372;2023-06-22T04:40:58;9.02;;;8.23;;
14994;SDS011;7593;49.006;8.372;2023-06-22T04:43:26;10.52;;;8.65;;
14994;SDS011;7593;49.006;8.372;2023-06-22T04:45:55;9.20;;;8.27;;
14994;SDS011;7593;49.006;8.372;2023-06-22T04:48:28;9.25;;;8.27;;
14994;SDS011;7593;49.006;8.372;2023-06-22T04:50:59;9.75;;;7.80;;
14994;SDS011;7593;49.006;8.372;2023-06-22T04:53:28;10.52;;;7.85;;
14994;SDS011;7593;49.006;8.372;2023-06-22T04:55:55;9.82;;;8.50;;
14994;SDS011;7593;49.006;8.372;2023-06-22T04:58:22;13.15;;;8.02;;
14994;SDS011;7593;49.006;8.372;2023-06-22T05:00:52;10.00;;;8.30;;
14994;SDS011;7593;49.006;8.372;2023-06-22T05:03:21;10.25;;;8.60;;
14994;SDS011;7593;49.006;8.372;2023-06-22T05:05:50;14.48;;;9.05;;
14994;SDS011;7593;49.006;8.372;2023-06-22T05:08:19;9.05;;;8.15;;
14994;SDS011;7593;49.006;8.372;2023-06-22T05:10:46;10.05;;;8.68;;
14994;SDS011;7593;49.006;8.372;2023-06-22T05:13:13;10.05;;;8.48;;
14994;SDS011;7593;49.006;8.372;2023-06-22T05:15:39;11.25;;;7.65;;
14994;SDS011;7593;49.006;8.372;2023-06-22T05:18:06;12.07;;;8.50;;
14994;SDS011;7593;49.006;8.372;2023-06-22T05:20:33;9.75;;;8.73;;
14994;SDS011;7593;49.006;8.372;2023-06-22T05:23:01;12.30;;;8.05;;
14994;SDS011;7593;49.006;8.372;2023-06-22T05:25:29;10.20;;;7.85;;
14994;SDS011;7593;49.006;8.372;2023-06-22T05:27:57;10.93;;;8.65;;
14994;SDS011;7593;49.006;8.372;2023-06-22T05:30:24;9.63;;;7.55;;
14994;SDS011;7593;49.006;8.372;2023-06-22T05:32:50;12.75;;;8.18;;
14994;SDS011;7593;49.006;8.372;2023-06-22T05:35:17;8.55;;;7.75;;
14994;SDS011;7593;49.006;8.372;2023-06-22T05:37:44;9.68;;;7.97;;
14994;SDS011;7593;49.006;8.372;2023-06-22T05:40:11;10.60;;;7.20;;
14994;SDS011;7593;49.006;8.372;2023-06-22T05:42:40;11.32;;;7.90;;
14994;SDS011;7593;49.006;8.372;2023-06-22T05:45:06;12.02;;;8.27;;
14994;SDS011;7593;49.006;8.372;2023-06-22T05:47:34;12.52;;;8.23;;
14994;SDS011;7593;49.006;8.372;2023-06-22T05:50:00;10.68;;;7.90;;
14994;SDS011;7593;49.006;8.372;2023-06-22T05:52:31;9.32;;;7.18;;
14994;SDS011;7593;49.006;8.372;2023-06-22T05:54:58;13.48;;;7.78;;
14994;SDS011;7593;49.006;8.372;2023-06-22T05:57:25;10.13;;;7.72;;
14994;SDS011;7593;49.006;8.372;2023-06-22T05:59:53;10.35;;;8.00;;
14994;SDS011;7593;49.006;8.372;2023-06-22T06:02:19;10.65;;;8.18;;
14994;SDS011;7593;49.006;8.372;2023-06-22T06:04:46;14.95;;;8.27;;
14994;SDS011;7593;49.006;8.372;2023-06-22T06:07:13;11.63;;;7.63;;
14994;SDS011;7593;49.006;8.372;2023-06-22T06:09:40;11.82;;;7.75;;
14994;SDS011;7593;49.006;8.372;2023-06-22T06:12:07;15.43;;;7.68;;
14994;SDS011;7593;49.006;8.372;2023-06-22T06:14:34;15.55;;;8.95;;
14994;SDS011;7593;49.006;8.372;2023-06-22T06:17:02;10.90;;;7.80;;
14994;SDS011;7593;49.006;8.372;2023-06-22T06:19:29;14.50;;;8.45;;
14994;SDS011;7593;49.006;8.372;2023-06-22T06:21:56;10.27;;;7.93;;
14994;SDS011;7593;49.006;8.372;2023-06-22T06:24:22;12.57;;;8.20;;
14994;SDS011;7593;49.006;8.372;2023-06-22T06:26:49;10.88;;;8.13;;
14994;SDS011;7593;49.006;8.372;2023-06-22T06:29:16;9.55;;;7.35;;
14994;SDS011;7593;49.006;8.372;2023-06-22T06:31:43;12.80;;;7.38;;
14994;SDS011;7593;49.006;8.372;2023-06-22T06:34:11;12.95;;;7.88;;
14994;SDS011;7593;49.006;8.372;2023-06-22T06:36:38;8.13;;;7.18;;
14994;SDS011;7593;49.006;8.372;2023-06-22T06:39:04;10.10;;;7.32;;
14994;SDS011;7593;49.006;8.372;2023-06-22T06:41:31;10.02;;;6.90;;
14994;SDS011;7593;49.006;8.372;2023-06-22T06:43:58;10.05;;;6.90;;
14994;SDS011;7593;49.006;8.372;2023-06-22T06:46:25;9.23;;;6.50;;
14994;SDS011;7593;49.006;8.372;2023-06-22T06:48:52;7.43;;;6.70;;
14994;SDS011;7593;49.006;8.372;2023-06-22T06:51:20;11.63;;;7.00;;
14994;SDS011;7593;49.006;8.372;2023-06-22T06:53:46;10.90;;;7.43;;
14994;SDS011;7593;49.006;8.372;2023-06-22T06:56:13;8.82;;;6.78;;
14994;SDS011;7593;49.006;8.372;2023-06-22T06:58:40;9.93;;;6.80;;
14994;SDS011;7593;49.006;8.372;2023-06-22T07:01:10;10.10;;;6.80;;
14994;SDS011;7593;49.006;8.372;2023-06-22T07:03:37;8.60;;;6.20;;
14994;SDS011;7593;49.006;8.372;2023-06-22T07:06:03;12.65;;;7.10;;
14994;SDS011;7593;49.006;8.372;2023-06-22T07:08:31;10.30;;;6.72;;
14994;SDS011;7593;49.006;8.372;2023-06-22T07:11:00;7.45;;;6.07;;
14994;SDS011;7593;49.006;8.372;2023-06-22T07:13:26;9.23;;;6.07;;
14994;SDS011;7593;49.006;8.372;2023-06-22T07:15:53;9.68;;;5.97;;
14994;SDS011;7593;49.006;8.372;2023-06-22T07:18:20;8.40;;;6.20;;
14994;SDS011;7593;49.006;8.372;2023-06-22T07:20:47;9.45;;;6.10;;
14994;SDS011;7593;49.006;8.372;2023-06-22T07:23:13;6.70;;;5.97;;
14994;SDS011;7593;49.006;8.372;2023-06-22T07:25:41;8.18;;;6.40;;
14994;SDS011;7593;49.006;8.372;2023-06-22T07:28:08;8.40;;;6.05;;
14994;SDS011;7593;49.006;8.372;2023-06-22T07:30:36;8.82;;;5.88;;
14994;SDS011;7593;49.006;8.372;2023-06-22T07:33:03;10.70;;;5.82;;
14994;SDS011;7593;49.006;8.372;2023-06-22T07:35:33;6.88;;;6.05;;
14994;SDS011;7593;49.006;8.372;2023-06-22T07:38:00;7.60;;;6.18;;
14994;SDS011;7593;49.006;8.372;2023-06-22T07:40:26;8.07;;;5.80;;
14994;SDS011;7593;49.006;8.372;2023-06-22T07:42:54;10.65;;;6.00;;
14994;SDS011;7593;49.006;8.372;2023-06-22T07:45:21;10.25;;;6.10;;
14994;SDS011;7593;49.006;8.372;2023-06-22T07:47:48;6.80;;;6.10;;
14994;SDS011;7593;49.006;8.372;2023-06-22T07:50:18;8.35;;;5.65;;
14994;SDS011;7593;49.006;8.372;2023-06-22T07:52:47;8.30;;;5.90;;
14994;SDS011;7593;49.006;8.372;2023-06-22T07:55:14;6.85;;;5.82;;
14994;SDS011;7593;49.006;8.372;2023-06-22T07:57:46;7.07;;;6.05;;
14994;SDS011;7593;49.006;8.372;2023-06-22T08:00:18;6.43;;;5.40;;
14994;SDS011;7593;49.006;8.372;2023-06-22T08:02:45;7.05;;;5.55;;
14994;SDS011;7593;49.006;8.372;2023-06-22T08:05:13;11.73;;;5.57;;
14994;SDS011;7593;49.006;8.372;2023-06-22T08:07:40;8.15;;;4.93;;
14994;SDS011;7593;49.006;8.372;2023-06-22T08:10:10;8.30;;;5.55;;
14994;SDS011;7593;49.006;8.372;2023-06-22T08:12:37;7.78;;;5.40;;
14994;SDS011;7593;49.006;8.372;2023-06-22T08:15:04;7.28;;;5.35;;
14994;SDS011;7593;49.006;8.372;2023-06-22T08:17:35;10.52;;;7.18;;
14994;SDS011;7593;49.006;8.372;2023-06-22T08:20:03;6.57;;;4.90;;
14994;SDS011;7593;49.006;8.372;2023-06-22T08:22:34;7.55;;;5.13;;
14994;SDS011;7593;49.006;8.372;2023-06-22T08:25:01;6.63;;;4.75;;
14994;SDS011;7593;49.006;8.372;2023-06-22T08:27:29;6.25;;;5.20;;
14994;SDS011;7593;49.006;8.372;2023-06-22T08:29:56;9.93;;;4.72;;
14994;SDS011;7593;49.006;8.372;2023-06-22T08:32:24;5.72;;;4.85;;
14994;SDS011;7593;49.006;8.372;2023-06-22T08:34:52;7.95;;;4.90;;
14994;SDS011;7593;49.006;8.372;2023-06-22T08:37:19;9.82;;;4.90;;
14994;SDS011;7593;49.006;8.372;2023-06-22T08:39:48;8.25;;;5.15;;
14994;SDS011;7593;49.006;8.372;2023-06-22T08:42:16;11.68;;;4.97;;
14994;SDS011;7593;49.006;8.372;2023-06-22T08:44:42;6.78;;;4.72;;
14994;SDS011;7593;49.006;8.372;2023-06-22T08:47:09;12.73;;;5.93;;
14994;SDS011;7593;49.006;8.372;2023-06-22T08:49:36;7.68;;;4.85;;
14994;SDS011;7593;49.006;8.372;2023-06-22T08:52:04;7.60;;;4.90;;
14994;SDS011;7593;49.006;8.372;2023-06-22T08:54:32;5.95;;;5.20;;
14994;SDS011;7593;49.006;8.372;2023-06-22T08:56:59;7.55;;;5.15;;
14994;SDS011;7593;49.006;8.372;2023-06-22T08:59:26;6.40;;;5.15;;
14994;SDS011;7593;49.006;8.372;2023-06-22T09:01:53;6.57;;;4.78;;
14994;SDS011;7593;49.006;8.372;2023-06-22T09:04:20;8.43;;;5.13;;
14994;SDS011;7593;49.006;8.372;2023-06-22T09:06:47;6.88;;;4.97;;
14994;SDS011;7593;49.006;8.372;2023-06-22T09:09:16;9.80;;;4.90;;
14994;SDS011;7593;49.006;8.372;2023-06-22T09:11:43;7.25;;;4.93;;
14994;SDS011;7593;49.006;8.372;2023-06-22T09:14:10;6.15;;;4.35;;
14994;SDS011;7593;49.006;8.372;2023-06-22T09:16:38;6.07;;;4.55;;
14994;SDS011;7593;49.006;8.372;2023-06-22T09:19:05;10.02;;;4.78;;
14994;SDS011;7593;49.006;8.372;2023-06-22T09:21:32;6.97;;;4.47;;
14994;SDS011;7593;49.006;8.372;2023-06-22T09:23:58;6.07;;;4.60;;
14994;SDS011;7593;49.006;8.372;2023-06-22T09:26:27;7.47;;;4.43;;
14994;SDS011;7593;49.006;8.372;2023-06-22T09:28:53;9.25;;;4.57;;
14994;SDS011;7593;49.006;8.372;2023-06-22T09:31:20;7.50;;;4.88;;
14994;SDS011;7593;49.006;8.372;2023-06-22T09:33:50;6.35;;;4.18;;
14994;SDS011;7593;49.006;8.372;2023-06-22T09:36:17;7.18;;;4.20;;
14994;SDS011;7593;49.006;8.372;2023-06-22T09:38:44;10.50;;;4.93;;
14994;SDS011;7593;49.006;8.372;2023-06-22T09:41:11;6.63;;;4.35;;
14994;SDS011;7593;49.006;8.372;2023-06-22T09:43:39;8.68;;;4.70;;
14994;SDS011;7593;49.006;8.372;2023-06-22T09:46:06;6.93;;;4.75;;
14994;SDS011;7593;49.006;8.372;2023-06-22T09:48:34;7.65;;;4.70;;
14994;SDS011;7593;49.006;8.372;2023-06-22T09:51:01;8.55;;;4.60;;
14994;SDS011;7593;49.006;8.372;2023-06-22T09:53:28;6.50;;;4.63;;
14994;SDS011;7593;49.006;8.372;2023-06-22T09:55:54;6.97;;;4.50;;
14994;SDS011;7593;49.006;8.372;2023-06-22T09:58:22;6.85;;;4.80;;
14994;SDS011;7593;49.006;8.372;2023-06-22T10:00:50;8.85;;;5.35;;
14994;SDS011;7593;49.006;8.372;2023-06-22T10:03:18;6.30;;;4.95;;
14994;SDS011;7593;49.006;8.372;2023-06-22T10:05:44;8.95;;;5.47;;
14994;SDS011;7593;49.006;8.372;2023-06-22T10:08:11;7.50;;;5.05;;
14994;SDS011;7593;49.006;8.372;2023-06-22T10:10:38;7.05;;;4.90;;
14994;SDS011;7593;49.006;8.372;2023-06-22T10:13:07;5.63;;;4.95;;
14994;SDS011;7593;49.006;8.372;2023-06-22T10:15:35;6.45;;;4.70;;
14994;SDS011;7593;49.006;8.372;2023-06-22T10:18:03;7.97;;;5.03;;
14994;SDS011;7593;49.006;8.372;2023-06-22T10:20:30;9.27;;;5.05;;
14994;SDS011;7593;49.006;8.372;2023-06-22T10:22:57;11.43;;;5.03;;
14994;SDS011;7593;49.006;8.372;2023-06-22T10:25:24;11.05;;;5.70;;
14994;SDS011;7593;49.006;8.372;2023-06-22T10:27:51;6.05;;;5.15;;
14994;SDS011;7593;49.006;8.372;2023-06-22T10:30:17;7.30;;;4.88;;
14994;SDS011;7593;49.006;8.372;2023-06-22T10:32:44;9.82;;;5.28;;
14994;SDS011;7593;49.006;8.372;2023-06-22T10:35:12;7.88;;;5.25;;
14994;SDS011;7593;49.006;8.372;2023-06-22T10:37:41;7.60;;;4.60;;
14994;SDS011;7593;49.006;8.372;2023-06-22T10:40:09;8.77;;;5.03;;
14994;SDS011;7593;49.006;8.372;2023-06-22T10:42:37;7.43;;;4.60;;
14994;SDS011;7593;49.006;8.372;2023-06-22T10:45:04;6.50;;;4.70;;
14994;SDS011;7593;49.006;8.372;2023-06-22T10:47:31;5.82;;;4.80;;
14994;SDS011;7593;49.006;8.372;2023-06-22T10:49:58;12.70;;;5.68;;
14994;SDS011;7593;49.006;8.372;2023-06-22T10:52:26;9.40;;;4.75;;
14994;SDS011;7593;49.006;8.372;2023-06-22T10:54:53;9.10;;;5.20;;
14994;SDS011;7593;49.006;8.372;2023-06-22T10:57:20;8.98;;;5.20;;
14994;SDS011;7593;49.006;8.372;2023-06-22T10:59:48;7.95;;;5.32;;
14994;SDS011;7593;49.006;8.372;2023-06-22T11:02:14;8.23;;;4.60;;
14994;SDS011;7593;49.006;8.372;2023-06-22T11:04:41;10.98;;;4.93;;
14994;SDS011;7593;49.006;8.372;2023-06-22T11:07:08;5.43;;;4.68;;
14994;SDS011;7593;49.006;8.372;2023-06-22T11:09:37;7.05;;;4.90;;
14994;SDS011;7593;49.006;8.372;2023-06-22T11:12:05;6.80;;;4.65;;
14994;SDS011;7593;49.006;8.372;2023-06-22T11:14:32;10.02;;;4.95;;
14994;SDS011;7593;49.006;8.372;2023-06-22T11:16:59;6.90;;;4.63;;
14994;SDS011;7593;49.006;8.372;2023-06-22T11:19:26;6.65;;;5.05;;
14994;SDS011;7593;49.006;8.372;2023-06-22T11:21:52;10.88;;;5.35;;
14994;SDS011;7593;49.006;8.372;2023-06-22T11:24:19;10.05;;;4.80;;
14994;SDS011;7593;49.006;8.372;2023-06-22T11:26:47;10.60;;;4.78;;
14994;SDS011;7593;49.006;8.372;2023-06-22T11:29:14;7.60;;;5.03;;
14994;SDS011;7593;49.006;8.372;2023-06-22T11:31:41;8.88;;;4.95;;
14994;SDS011;7593;49.006;8.372;2023-06-22T11:34:08;12.27;;;4.80;;
14994;SDS011;7593;49.006;8.372;2023-06-22T11:36:36;11.75;;;5.25;;
14994;SDS011;7593;49.006;8.372;2023-06-22T11:39:03;10.95;;;4.85;;
14994;SDS011;7593;49.006;8.372;2023-06-22T11:41:30;6.07;;;4.70;;
14994;SDS011;7593;49.006;8.372;2023-06-22T11:43:58;8.32;;;5.43;;
14994;SDS011;7593;49.006;8.372;2023-06-22T11:46:24;8.68;;;5.07;;
14994;SDS011;7593;49.006;8.372;2023-06-22T11:48:51;7.47;;;5.03;;
14994;SDS011;7593;49.006;8.372;2023-06-22T11:51:18;9.10;;;5.72;;
14994;SDS011;7593;49.006;8.372;2023-06-22T11:53:45;9.80;;;5.25;;
14994;SDS011;7593;49.006;8.372;2023-06-22T11:56:11;7.15;;;5.20;;
14994;SDS011;7593;49.006;8.372;2023-06-22T11:58:38;7.90;;;4.78;;
14994;SDS011;7593;49.006;8.372;2023-06-22T12:01:06;10.55;;;5.32;;
14994;SDS011;7593;49.006;8.372;2023-06-22T12:03:33;5.68;;;4.50;;
14994;SDS011;7593;49.006;8.372;2023-06-22T12:06:00;8.98;;;4.82;;
14994;SDS011;7593;49.006;8.372;2023-06-22T12:08:26;9.48;;;5.15;;
14994;SDS011;7593;49.006;8.372;2023-06-22T12:10:53;9.07;;;5.10;;
14994;SDS011;7593;49.006;8.372;2023-06-22T12:13:20;8.95;;;4.72;;
14994;SDS011;7593;49.006;8.372;2023-06-22T12:15:47;7.15;;;4.55;;
14994;SDS011;7593;49.006;8.372;2023-06-22T12:18:15;9.32;;;4.72;;
14994;SDS011;7593;49.006;8.372;2023-06-22T12:20:41;6.00;;;4.40;;
14994;SDS011;7593;49.006;8.372;2023-06-22T12:23:08;6.03;;;4.43;;
14994;SDS011;7593;49.006;8.372;2023-06-22T12:25:35;10.32;;;4.80;;
14994;SDS011;7593;49.006;8.372;2023-06-22T12:28:02;9.27;;;4.82;;
14994;SDS011;7593;49.006;8.372;2023-06-22T12:30:29;7.95;;;4.22;;
14994;SDS011;7593;49.006;8.372;2023-06-22T12:32:56;5.80;;;4.30;;
14994;SDS011;7593;49.006;8.372;2023-06-22T12:35:24;7.82;;;4.60;;
14994;SDS011;7593;49.006;8.372;2023-06-22T12:37:51;6.68;;;4.55;;
14994;SDS011;7593;49.006;8.372;2023-06-22T12:40:17;7.10;;;5.10;;
14994;SDS011;7593;49.006;8.372;2023-06-22T12:42:44;8.43;;;5.38;;
14994;SDS011;7593;49.006;8.372;2023-06-22T12:45:11;9.30;;;5.53;;
14994;SDS011;7593;49.006;8.372;2023-06-22T12:47:38;7.35;;;5.20;;
14994;SDS011;7593;49.006;8.372;2023-06-22T12:50:05;7.88;;;4.85;;
14994;SDS011;7593;49.006;8.372;2023-06-22T12:52:35;8.27;;;5.32;;
14994;SDS011;7593;49.006;8.372;2023-06-22T12:55:04;8.40;;;5.32;;
14994;SDS011;7593;49.006;8.372;2023-06-22T12:57:31;9.65;;;5.70;;
14994;SDS011;7593;49.006;8.372;2023-06-22T12:59:58;6.82;;;5.15;;
14994;SDS011;7593;49.006;8.372;2023-06-22T13:02:25;12.35;;;5.70;;
14994;SDS011;7593;49.006;8.372;2023-06-22T13:04:52;8.27;;;5.38;;
14994;SDS011;7593;49.006;8.372;2023-06-22T13:07:19;11.68;;;5.45;;
14994;SDS011;7593;49.006;8.372;2023-06-22T13:09:47;7.47;;;5.28;;
14994;SDS011;7593;49.006;8.372;2023-06-22T13:12:16;5.75;;;5.00;;
14994;SDS011;7593;49.006;8.372;2023-06-22T13:14:43;6.82;;;5.47;;
14994;SDS011;7593;49.006;8.372;2023-06-22T13:17:11;7.75;;;4.88;;
14994;SDS011;7593;49.006;8.372;2023-06-22T13:19:39;8.38;;;5.00;;
14994;SDS011;7593;49.006;8.372;2023-06-22T13:22:09;7.22;;;5.35;;
14994;SDS011;7593;49.006;8.372;2023-06-22T13:24:54;6.38;;;4.97;;
14994;SDS011;7593;49.006;8.372;2023-06-22T13:27:21;8.90;;;5.10;;
14994;SDS011;7593;49.006;8.372;2023-06-22T13:29:48;6.65;;;4.68;;
14994;SDS011;7593;49.006;8.372;2023-06-22T13:32:14;9.35;;;5.30;;
14994;SDS011;7593;49.006;8.372;2023-06-22T13:34:41;8.55;;;4.65;;
14994;SDS011;7593;49.006;8.372;2023-06-22T13:37:08;6.20;;;4.50;;
14994;SDS011;7593;49.006;8.372;2023-06-22T13:39:35;8.75;;;4.60;;
14994;SDS011;7593;49.006;8.372;2023-06-22T13:42:03;8.15;;;4.65;;
14994;SDS011;7593;49.006;8.372;2023-06-22T13:44:30;7.55;;;4.22;;
14994;SDS011;7593;49.006;8.372;2023-06-22T13:46:57;7.45;;;4.88;;
14994;SDS011;7593;49.006;8.372;2023-06-22T13:49:24;6.95;;;4.97;;
14994;SDS011;7593;49.006;8.372;2023-06-22T13:51:50;6.40;;;4.72;;
14994;SDS011;7593;49.006;8.372;2023-06-22T13:54:17;10.40;;;5.15;;
14994;SDS011;7593;49.006;8.372;2023-06-22T13:56:44;11.48;;;5.10;;
14994;SDS011;7593;49.006;8.372;2023-06-22T13:59:12;6.53;;;4.97;;
14994;SDS011;7593;49.006;8.372;2023-06-22T14:01:39;10.10;;;5.63;;
14994;SDS011;7593;49.006;8.372;2023-06-22T14:04:06;9.75;;;6.07;;
14994;SDS011;7593;49.006;8.372;2023-06-22T14:06:33;8.75;;;5.45;;
14994;SDS011;7593;49.006;8.372;2023-06-22T14:09:00;11.35;;;5.63;;
14994;SDS011;7593;49.006;8.372;2023-06-22T14:11:27;10.00;;;6.43;;
14994;SDS011;7593;49.006;8.372;2023-06-22T14:13:54;9.98;;;5.88;;
14994;SDS011;7593;49.006;8.372;2023-06-22T14:16:22;9.98;;;6.05;;
14994;SDS011;7593;49.006;8.372;2023-06-22T14:18:49;6.90;;;5.85;;
14994;SDS011;7593;49.006;8.372;2023-06-22T14:21:15;12.25;;;6.55;;
14994;SDS011;7593;49.006;8.372;2023-06-22T14:23:43;8.93;;;6.55;;
14994;SDS011;7593;49.006;8.372;2023-06-22T14:26:14;10.50;;;6.20;;
14994;SDS011;7593;49.006;8.372;2023-06-22T14:28:42;12.60;;;6.45;;
14994;SDS011;7593;49.006;8.372;2023-06-22T14:31:12;18.77;;;6.88;;
14994;SDS011;7593;49.006;8.372;2023-06-22T14:33:43;9.63;;;6.43;;
14994;SDS011;7593;49.006;8.372;2023-06-22T14:36:11;10.85;;;7.07;;
14994;SDS011;7593;49.006;8.372;2023-06-22T14:38:38;10.68;;;6.53;;
14994;SDS011;7593;49.006;8.372;2023-06-22T14:41:05;9.75;;;5.95;;
14994;SDS011;7593;49.006;8.372;2023-06-22T14:43:32;10.95;;;6.35;;
14994;SDS011;7593;49.006;8.372;2023-06-22T14:45:58;9.55;;;6.03;;
14994;SDS011;7593;49.006;8.372;2023-06-22T14:48:25;9.55;;;6.43;;
14994;SDS011;7593;49.006;8.372;2023-06-22T14:50:53;10.43;;;5.70;;
14994;SDS011;7593;49.006;8.372;2023-06-22T14:53:20;10.98;;;5.57;;
14994;SDS011;7593;49.006;8.372;2023-06-22T14:55:48;9.75;;;5.30;;
14994;SDS011;7593;49.006;8.372;2023-06-22T14:58:15;12.57;;;5.88;;